Terminal Aerodrome Forecast
Issued by NWS

Home | Current Version | Previous Version | Text Only | Print | Product List | Glossary On
Versions: 1 2 3 4 5 6 7 8 9 10 11 12 13 14 15 16 17 18 19 20 21 22
000
FTUS41 KBTV 251437 AAA
TAFSLK
TAF AMD
KSLK 251437Z 2515/2612 27010KT 6SM -SN OVC017
      TEMPO 2515/2518 4SM -SN OVC020
     FM251800 27006KT P6SM BKN025 BKN035
     FM252000 25005KT P6SM SKC=

USA.gov is the U.S. government's official web portal to all federal, state and local government web resources and services.